KCHA/CHA METAR and TAF weather

Enter ICAO airport designator
Station Type Date Time Source
KCHA METAR 2018/12/10 18:53 UTC NOAA

KCHA 101853Z 01006KT 5SM -RA BR BKN015 OVC035 06/03 A3014 RMK AO2 SLP208 P0002 T00560028 $


Station Type Date Time Source
KCHA Decoded METAR 2018/12/10 18:53 UTC NOAA

LOVELL FIELD, TN, United States (KCHA) 35-02N 085-12W 210M
Dec 10, 2018 - 01:53 PM EST / 2018.12.10 1853 UTC
Wind: from the N (010 degrees) at 7 MPH (6 KT):0
Visibility: 5 mile(s):0
Sky conditions: overcast
Weather: light rain; mist
Precipitation last hour: 0.02 inches
Temperature: 42.1 F (5.6 C)
Dew Point: 37.0 F (2.8 C)
Relative Humidity: 82%
Pressure (altimeter): 30.14 in. Hg (1020 hPa)
ob: KCHA 101853Z 01006KT 5SM -RA BR BKN015 OVC035 06/03 A3014 RMK AO2 SLP208 P0002 T00560028
cycle: 19

Station Type Date Time Source
KCHA TAF 2018/12/10 18:24 UTC NOAA

TAF KCHA 101722Z 1018/1118 01008KT P6SM BKN015 OVC030
TEMPO 1018/1020 5SM -RA
FM102000 36007KT P6SM BKN025
FM110000 36005KT P6SM BKN250
FM110600 36003KT P6SM SKC


Example: see airport list